Terminal Aerodrome Forecast
Issued by NWS Northern Indiana

Home | Current Version | Previous Version | Text Only | Print | Product List | Glossary Off
Versions: 1 2 3 4 5 6 7 8 9 10 11 12 13 14 15 16 17

000
FTUS43 KIWX 141700
TAFFWA
TAF
KFWA 141720Z 1418/1518 32017G24KT P6SM OVC015
     FM150100 34013KT 5SM -RASN OVC012
      TEMPO 1503/1506 2SM -SN BR
     FM151200 33017G24KT P6SM BKN025=

USA.gov is the U.S. government's official web portal to all federal, state and local government web resources and services.